sensor_id;sensor_type;location;lat;lon;timestamp;pressure;altitude;pressure_sealevel;temperature;humidity
52535;BME280;38443;53.164;5.802;2023-09-08T00:01:44;101919.41;;;17.56;100.00
52535;BME280;38443;53.164;5.802;2023-09-08T00:04:10;101918.56;;;17.54;100.00
52535;BME280;38443;53.164;5.802;2023-09-08T00:06:36;101917.66;;;17.53;100.00
52535;BME280;38443;53.164;5.802;2023-09-08T00:09:02;101915.94;;;17.52;100.00
52535;BME280;38443;53.164;5.802;2023-09-08T00:11:28;101910.56;;;17.51;100.00
52535;BME280;38443;53.164;5.802;2023-09-08T00:13:53;101912.50;;;17.47;100.00
52535;BME280;38443;53.164;5.802;2023-09-08T00:16:18;101910.81;;;17.45;100.00
52535;BME280;38443;53.164;5.802;2023-09-08T00:18:43;101918.19;;;17.41;100.00
52535;BME280;38443;53.164;5.802;2023-09-08T00:21:09;101920.94;;;17.40;100.00
52535;BME280;38443;53.164;5.802;2023-09-08T00:23:34;101919.25;;;17.37;100.00
52535;BME280;38443;53.164;5.802;2023-09-08T00:25:59;101918.38;;;17.37;100.00
52535;BME280;38443;53.164;5.802;2023-09-08T00:28:25;101924.72;;;17.35;100.00
52535;BME280;38443;53.164;5.802;2023-09-08T00:30:50;101919.44;;;17.32;100.00
52535;BME280;38443;53.164;5.802;2023-09-08T00:33:15;101920.47;;;17.30;100.00
52535;BME280;38443;53.164;5.802;2023-09-08T00:35:44;101919.59;;;17.28;100.00
52535;BME280;38443;53.164;5.802;2023-09-08T00:38:10;101918.88;;;17.24;100.00
52535;BME280;38443;53.164;5.802;2023-09-08T00:40:35;101922.69;;;17.19;100.00
52535;BME280;38443;53.164;5.802;2023-09-08T00:43:00;101917.41;;;17.15;100.00
52535;BME280;38443;53.164;5.802;2023-09-08T00:45:29;101914.00;;;17.10;100.00
52535;BME280;38443;53.164;5.802;2023-09-08T00:47:55;101910.53;;;17.07;100.00
52535;BME280;38443;53.164;5.802;2023-09-08T00:50:20;101916.06;;;17.04;100.00
52535;BME280;38443;53.164;5.802;2023-09-08T00:52:46;101913.44;;;17.02;100.00
52535;BME280;38443;53.164;5.802;2023-09-08T00:55:11;101914.41;;;17.00;100.00
52535;BME280;38443;53.164;5.802;2023-09-08T00:57:36;101914.53;;;16.97;100.00
52535;BME280;38443;53.164;5.802;2023-09-08T01:00:02;101917.25;;;16.97;100.00
52535;BME280;38443;53.164;5.802;2023-09-08T01:02:31;101911.03;;;16.94;100.00
52535;BME280;38443;53.164;5.802;2023-09-08T01:04:57;101907.50;;;16.92;100.00
52535;BME280;38443;53.164;5.802;2023-09-08T01:07:26;101910.25;;;16.91;100.00
52535;BME280;38443;53.164;5.802;2023-09-08T01:09:52;101912.91;;;16.92;100.00
52535;BME280;38443;53.164;5.802;2023-09-08T01:12:19;101911.13;;;16.91;100.00
52535;BME280;38443;53.164;5.802;2023-09-08T01:14:44;101910.25;;;16.91;100.00
52535;BME280;38443;53.164;5.802;2023-09-08T01:17:10;101921.25;;;16.86;100.00
52535;BME280;38443;53.164;5.802;2023-09-08T01:19:37;101926.72;;;16.85;100.00
52535;BME280;38443;53.164;5.802;2023-09-08T01:27:46;101926.91;;;16.79;100.00
52535;BME280;38443;53.164;5.802;2023-09-08T01:30:12;101927.94;;;16.76;100.00
52535;BME280;38443;53.164;5.802;2023-09-08T01:32:39;101922.56;;;16.74;100.00
52535;BME280;38443;53.164;5.802;2023-09-08T01:35:05;101924.41;;;16.74;100.00
52535;BME280;38443;53.164;5.802;2023-09-08T01:37:31;101925.38;;;16.71;100.00
52535;BME280;38443;53.164;5.802;2023-09-08T01:39:56;101923.69;;;16.69;100.00
52535;BME280;38443;53.164;5.802;2023-09-08T01:42:22;101924.78;;;16.63;100.00
52535;BME280;38443;53.164;5.802;2023-09-08T01:44:47;101913.19;;;16.60;100.00
52535;BME280;38443;53.164;5.802;2023-09-08T01:47:12;101916.03;;;16.57;100.00
52535;BME280;38443;53.164;5.802;2023-09-08T01:49:37;101917.03;;;16.54;100.00
52535;BME280;38443;53.164;5.802;2023-09-08T01:52:03;101918.13;;;16.48;100.00
52535;BME280;38443;53.164;5.802;2023-09-08T01:54:28;101908.34;;;16.46;100.00
52535;BME280;38443;53.164;5.802;2023-09-08T01:56:54;101911.13;;;16.43;100.00
52535;BME280;38443;53.164;5.802;2023-09-08T01:59:19;101910.34;;;16.39;100.00
52535;BME280;38443;53.164;5.802;2023-09-08T02:01:44;101906.81;;;16.37;100.00
52535;BME280;38443;53.164;5.802;2023-09-08T02:04:10;101905.06;;;16.36;100.00
52535;BME280;38443;53.164;5.802;2023-09-08T02:06:35;101908.84;;;16.32;100.00
52535;BME280;38443;53.164;5.802;2023-09-08T02:09:00;101907.19;;;16.28;100.00
52535;BME280;38443;53.164;5.802;2023-09-08T02:11:26;101898.28;;;16.24;100.00
52535;BME280;38443;53.164;5.802;2023-09-08T02:13:51;101908.28;;;16.22;100.00
52535;BME280;38443;53.164;5.802;2023-09-08T02:16:17;101902.03;;;16.20;100.00
52535;BME280;38443;53.164;5.802;2023-09-08T02:18:43;101908.41;;;16.18;100.00
52535;BME280;38443;53.164;5.802;2023-09-08T02:21:09;101898.63;;;16.15;100.00
52535;BME280;38443;53.164;5.802;2023-09-08T02:23:34;101899.66;;;16.11;100.00
52535;BME280;38443;53.164;5.802;2023-09-08T02:25:59;101903.38;;;16.08;100.00
52535;BME280;38443;53.164;5.802;2023-09-08T02:28:25;101898.06;;;16.05;100.00
52535;BME280;38443;53.164;5.802;2023-09-08T02:30:50;101903.59;;;16.02;100.00
52535;BME280;38443;53.164;5.802;2023-09-08T02:33:15;101900.09;;;15.99;100.00
52535;BME280;38443;53.164;5.802;2023-09-08T02:35:41;101897.41;;;15.99;100.00
52535;BME280;38443;53.164;5.802;2023-09-08T02:38:06;101904.59;;;16.00;100.00
52535;BME280;38443;53.164;5.802;2023-09-08T02:40:32;101902.84;;;15.97;100.00
52535;BME280;38443;53.164;5.802;2023-09-08T02:43:00;101905.59;;;15.95;100.00
52535;BME280;38443;53.164;5.802;2023-09-08T02:45:25;101902.84;;;15.97;100.00
52535;BME280;38443;53.164;5.802;2023-09-08T02:47:50;101903.75;;;15.98;100.00
52535;BME280;38443;53.164;5.802;2023-09-08T02:50:16;101906.53;;;15.94;100.00
52535;BME280;38443;53.164;5.802;2023-09-08T02:52:41;101904.84;;;15.92;100.00
52535;BME280;38443;53.164;5.802;2023-09-08T02:55:06;101898.53;;;15.91;100.00
52535;BME280;38443;53.164;5.802;2023-09-08T02:57:32;101908.50;;;15.89;100.00
52535;BME280;38443;53.164;5.802;2023-09-08T02:59:57;101901.34;;;15.88;100.00
52535;BME280;38443;53.164;5.802;2023-09-08T03:02:24;101890.72;;;15.84;100.00
52535;BME280;38443;53.164;5.802;2023-09-08T03:04:50;101896.13;;;15.84;100.00
52535;BME280;38443;53.164;5.802;2023-09-08T03:07:15;101898.81;;;15.84;100.00
52535;BME280;38443;53.164;5.802;2023-09-08T03:09:40;101896.22;;;15.81;100.00
52535;BME280;38443;53.164;5.802;2023-09-08T03:12:06;101892.69;;;15.79;100.00
52535;BME280;38443;53.164;5.802;2023-09-08T03:14:31;101893.72;;;15.74;100.00
52535;BME280;38443;53.164;5.802;2023-09-08T03:16:57;101892.91;;;15.72;100.00
52535;BME280;38443;53.164;5.802;2023-09-08T03:19:22;101889.38;;;15.69;100.00
52535;BME280;38443;53.164;5.802;2023-09-08T03:21:47;101889.50;;;15.66;100.00
52535;BME280;38443;53.164;5.802;2023-09-08T03:24:13;101883.31;;;15.62;100.00
52535;BME280;38443;53.164;5.802;2023-09-08T03:26:38;101879.78;;;15.60;100.00
52535;BME280;38443;53.164;5.802;2023-09-08T03:29:06;101883.41;;;15.59;100.00
52535;BME280;38443;53.164;5.802;2023-09-08T03:31:31;101878.13;;;15.56;100.00
52535;BME280;38443;53.164;5.802;2023-09-08T03:33:57;101879.16;;;15.52;100.00
52535;BME280;38443;53.164;5.802;2023-09-08T03:36:22;101873.84;;;15.49;100.00
52535;BME280;38443;53.164;5.802;2023-09-08T03:38:47;101873.03;;;15.47;100.00
52535;BME280;38443;53.164;5.802;2023-09-08T03:41:12;101873.97;;;15.46;100.00
52535;BME280;38443;53.164;5.802;2023-09-08T03:43:38;101873.19;;;15.42;100.00
52535;BME280;38443;53.164;5.802;2023-09-08T03:46:03;101873.19;;;15.42;100.00
52535;BME280;38443;53.164;5.802;2023-09-08T03:48:29;101875.94;;;15.41;100.00
52535;BME280;38443;53.164;5.802;2023-09-08T03:50:54;101879.50;;;15.41;100.00
52535;BME280;38443;53.164;5.802;2023-09-08T03:53:19;101878.63;;;15.41;100.00
52535;BME280;38443;53.164;5.802;2023-09-08T03:55:45;101873.34;;;15.38;100.00
52535;BME280;38443;53.164;5.802;2023-09-08T03:58:10;101873.34;;;15.38;100.00
52535;BME280;38443;53.164;5.802;2023-09-08T04:00:35;101878.84;;;15.34;100.00
52535;BME280;38443;53.164;5.802;2023-09-08T04:03:01;101876.28;;;15.30;100.00
52535;BME280;38443;53.164;5.802;2023-09-08T04:05:26;101875.47;;;15.28;100.00
52535;BME280;38443;53.164;5.802;2023-09-08T04:07:51;101866.59;;;15.24;100.00
52535;BME280;38443;53.164;5.802;2023-09-08T04:10:16;101877.47;;;15.21;100.00
52535;BME280;38443;53.164;5.802;2023-09-08T04:12:42;101875.72;;;15.20;100.00
52535;BME280;38443;53.164;5.802;2023-09-08T04:15:08;101885.66;;;15.18;100.00
52535;BME280;38443;53.164;5.802;2023-09-08T04:17:34;101876.75;;;15.16;100.00
52535;BME280;38443;53.164;5.802;2023-09-08T04:20:01;101869.63;;;15.13;100.00
52535;BME280;38443;53.164;5.802;2023-09-08T04:22:26;101874.19;;;15.11;100.00
52535;BME280;38443;53.164;5.802;2023-09-08T04:24:52;101863.44;;;15.10;100.00
52535;BME280;38443;53.164;5.802;2023-09-08T04:27:19;101876.00;;;15.11;100.00
52535;BME280;38443;53.164;5.802;2023-09-08T04:29:44;101861.78;;;15.06;100.00
52535;BME280;38443;53.164;5.802;2023-09-08T04:32:09;101860.94;;;15.04;100.00
52535;BME280;38443;53.164;5.802;2023-09-08T04:34:40;101870.00;;;15.01;100.00
52535;BME280;38443;53.164;5.802;2023-09-08T04:37:05;101862.81;;;15.02;100.00
52535;BME280;38443;53.164;5.802;2023-09-08T04:39:31;101864.69;;;15.00;100.00
52535;BME280;38443;53.164;5.802;2023-09-08T04:41:57;101865.59;;;14.99;100.00
52535;BME280;38443;53.164;5.802;2023-09-08T04:44:22;101863.84;;;14.98;100.00
52535;BME280;38443;53.164;5.802;2023-09-08T04:46:48;101857.63;;;14.95;100.00
52535;BME280;38443;53.164;5.802;2023-09-08T04:49:13;101863.00;;;14.95;100.00
52535;BME280;38443;53.164;5.802;2023-09-08T04:51:38;101861.22;;;14.94;100.00
52535;BME280;38443;53.164;5.802;2023-09-08T04:54:04;101867.56;;;14.93;100.00
52535;BME280;38443;53.164;5.802;2023-09-08T04:56:29;101856.88;;;14.90;100.00
52535;BME280;38443;53.164;5.802;2023-09-08T04:58:54;101853.41;;;14.85;100.00
52535;BME280;38443;53.164;5.802;2023-09-08T05:01:21;101857.13;;;14.81;100.00
52535;BME280;38443;53.164;5.802;2023-09-08T05:03:46;101864.34;;;14.81;100.00
52535;BME280;38443;53.164;5.802;2023-09-08T05:06:11;101873.31;;;14.81;100.00
52535;BME280;38443;53.164;5.802;2023-09-08T05:08:38;101870.56;;;14.83;100.00
52535;BME280;38443;53.164;5.802;2023-09-08T05:11:04;101865.16;;;14.84;100.00
52535;BME280;38443;53.164;5.802;2023-09-08T05:13:29;101872.16;;;14.90;100.00
52535;BME280;38443;53.164;5.802;2023-09-08T05:15:54;101872.13;;;14.91;100.00
52535;BME280;38443;53.164;5.802;2023-09-08T05:18:26;101874.72;;;14.94;100.00
52535;BME280;38443;53.164;5.802;2023-09-08T05:20:51;101872.81;;;14.98;100.00
52535;BME280;38443;53.164;5.802;2023-09-08T05:23:17;101872.75;;;15.00;100.00
52535;BME280;38443;53.164;5.802;2023-09-08T05:25:42;101877.16;;;15.02;100.00
52535;BME280;38443;53.164;5.802;2023-09-08T05:28:07;101873.47;;;15.05;100.00
52535;BME280;38443;53.164;5.802;2023-09-08T05:30:33;101871.63;;;15.07;100.00
52535;BME280;38443;53.164;5.802;2023-09-08T05:32:59;101868.84;;;15.10;100.00
52535;BME280;38443;53.164;5.802;2023-09-08T05:35:24;101882.22;;;15.13;100.00
52535;BME280;38443;53.164;5.802;2023-09-08T05:37:49;101873.09;;;15.17;100.00
52535;BME280;38443;53.164;5.802;2023-09-08T05:40:15;101874.75;;;15.21;100.00
52535;BME280;38443;53.164;5.802;2023-09-08T05:42:40;101874.69;;;15.24;100.00
52535;BME280;38443;53.164;5.802;2023-09-08T05:45:05;101870.09;;;15.26;100.00
52535;BME280;38443;53.164;5.802;2023-09-08T05:47:31;101870.91;;;15.30;100.00
52535;BME280;38443;53.164;5.802;2023-09-08T05:49:56;101872.59;;;15.32;100.00
52535;BME280;38443;53.164;5.802;2023-09-08T05:52:21;101879.66;;;15.36;100.00
52535;BME280;38443;53.164;5.802;2023-09-08T05:54:47;101871.38;;;15.43;100.00
52535;BME280;38443;53.164;5.802;2023-09-08T05:57:12;101866.75;;;15.46;100.00
52535;BME280;38443;53.164;5.802;2023-09-08T05:59:37;101870.16;;;15.51;100.00
52535;BME280;38443;53.164;5.802;2023-09-08T06:02:03;101875.38;;;15.58;100.00
52535;BME280;38443;53.164;5.802;2023-09-08T06:04:28;101874.28;;;15.63;100.00
52535;BME280;38443;53.164;5.802;2023-09-08T06:06:57;101867.78;;;15.69;100.00
52535;BME280;38443;53.164;5.802;2023-09-08T06:09:22;101872.09;;;15.76;100.00
52535;BME280;38443;53.164;5.802;2023-09-08T06:11:47;101879.94;;;15.84;100.00
52535;BME280;38443;53.164;5.802;2023-09-08T06:14:13;101882.41;;;15.90;100.00
52535;BME280;38443;53.164;5.802;2023-09-08T06:16:38;101884.00;;;15.95;100.00
52535;BME280;38443;53.164;5.802;2023-09-08T06:19:03;101884.69;;;16.02;100.00
52535;BME280;38443;53.164;5.802;2023-09-08T06:21:29;101884.47;;;16.08;100.00
52535;BME280;38443;53.164;5.802;2023-09-08T06:23:54;101888.75;;;16.14;100.00
52535;BME280;38443;53.164;5.802;2023-09-08T06:26:19;101886.72;;;16.21;100.00
52535;BME280;38443;53.164;5.802;2023-09-08T06:28:44;101889.59;;;16.65;100.00
52535;BME280;38443;53.164;5.802;2023-09-08T06:31:10;101885.44;;;17.25;100.00
52535;BME280;38443;53.164;5.802;2023-09-08T06:33:35;101888.16;;;17.47;100.00
52535;BME280;38443;53.164;5.802;2023-09-08T06:36:01;101882.84;;;18.09;100.00
52535;BME280;38443;53.164;5.802;2023-09-08T06:38:26;101873.44;;;18.97;100.00
52535;BME280;38443;53.164;5.802;2023-09-08T06:40:51;101867.88;;;19.90;100.00
52535;BME280;38443;53.164;5.802;2023-09-08T06:43:18;101869.84;;;20.72;100.00
52535;BME280;38443;53.164;5.802;2023-09-08T06:45:47;101860.66;;;21.38;100.00
52535;BME280;38443;53.164;5.802;2023-09-08T06:48:12;101861.53;;;21.85;100.00
52535;BME280;38443;53.164;5.802;2023-09-08T06:50:38;101860.38;;;22.19;100.00
52535;BME280;38443;53.164;5.802;2023-09-08T06:53:03;101860.97;;;22.53;100.00
52535;BME280;38443;53.164;5.802;2023-09-08T06:55:29;101851.31;;;22.90;100.00
52535;BME280;38443;53.164;5.802;2023-09-08T06:57:54;101853.28;;;23.30;100.00
52535;BME280;38443;53.164;5.802;2023-09-08T07:00:19;101845.22;;;23.41;100.00
52535;BME280;38443;53.164;5.802;2023-09-08T07:02:45;101851.16;;;23.48;100.00
52535;BME280;38443;53.164;5.802;2023-09-08T07:05:11;101851.72;;;23.53;100.00
52535;BME280;38443;53.164;5.802;2023-09-08T07:07:36;101848.63;;;23.72;100.00
52535;BME280;38443;53.164;5.802;2023-09-08T07:10:03;101845.41;;;23.93;100.00
52535;BME280;38443;53.164;5.802;2023-09-08T07:12:29;101844.75;;;24.15;100.00
52535;BME280;38443;53.164;5.802;2023-09-08T07:14:54;101857.00;;;24.47;100.00
52535;BME280;38443;53.164;5.802;2023-09-08T07:17:19;101845.09;;;24.74;100.00
52535;BME280;38443;53.164;5.802;2023-09-08T07:19:45;101848.66;;;24.87;100.00
52535;BME280;38443;53.164;5.802;2023-09-08T07:22:10;101852.50;;;24.85;100.00
52535;BME280;38443;53.164;5.802;2023-09-08T07:24:35;101851.41;;;24.87;100.00
52535;BME280;38443;53.164;5.802;2023-09-08T07:27:01;101850.31;;;24.90;100.00
52535;BME280;38443;53.164;5.802;2023-09-08T07:29:26;101849.00;;;24.96;100.00
52535;BME280;38443;53.164;5.802;2023-09-08T07:31:52;101838.63;;;25.12;100.00
52535;BME280;38443;53.164;5.802;2023-09-08T07:34:17;101847.19;;;25.07;100.00
52535;BME280;38443;53.164;5.802;2023-09-08T07:36:43;101844.25;;;25.35;100.00
52535;BME280;38443;53.164;5.802;2023-09-08T07:39:08;101847.22;;;25.32;100.00
52535;BME280;38443;53.164;5.802;2023-09-08T07:41:33;101845.19;;;25.46;100.00
52535;BME280;38443;53.164;5.802;2023-09-08T07:43:59;101843.06;;;25.74;100.00
52535;BME280;38443;53.164;5.802;2023-09-08T07:46:25;101846.44;;;25.78;100.00
52535;BME280;38443;53.164;5.802;2023-09-08T07:48:50;101840.34;;;25.85;100.00
52535;BME280;38443;53.164;5.802;2023-09-08T07:51:16;101844.00;;;25.86;100.00
52535;BME280;38443;53.164;5.802;2023-09-08T07:53:41;101851.09;;;25.88;100.00
52535;BME280;38443;53.164;5.802;2023-09-08T07:56:06;101839.47;;;25.85;100.00
52535;BME280;38443;53.164;5.802;2023-09-08T07:58:32;101834.00;;;25.85;100.00
52535;BME280;38443;53.164;5.802;2023-09-08T08:00:57;101831.88;;;25.88;100.00
52535;BME280;38443;53.164;5.802;2023-09-08T08:03:22;101832.56;;;25.92;100.00
52535;BME280;38443;53.164;5.802;2023-09-08T08:05:48;101832.97;;;26.10;100.00
52535;BME280;38443;53.164;5.802;2023-09-08T08:08:13;101832.84;;;26.12;100.00
52535;BME280;38443;53.164;5.802;2023-09-08T08:10:40;101830.00;;;26.24;100.00
52535;BME280;38443;53.164;5.802;2023-09-08T08:13:06;101827.13;;;26.26;100.00
52535;BME280;38443;53.164;5.802;2023-09-08T08:15:39;101838.69;;;26.07;100.00
52535;BME280;38443;53.164;5.802;2023-09-08T08:18:05;101843.69;;;26.13;100.00
52535;BME280;38443;53.164;5.802;2023-09-08T08:20:31;101833.88;;;26.44;100.00
52535;BME280;38443;53.164;5.802;2023-09-08T08:23:03;101832.66;;;26.71;100.00
52535;BME280;38443;53.164;5.802;2023-09-08T08:25:29;101826.66;;;26.77;100.00
52535;BME280;38443;53.164;5.802;2023-09-08T08:27:55;101817.94;;;26.72;100.00
52535;BME280;38443;53.164;5.802;2023-09-08T08:30:22;101816.16;;;26.71;100.00
52535;BME280;38443;53.164;5.802;2023-09-08T08:32:47;101818.91;;;26.60;100.00
52535;BME280;38443;53.164;5.802;2023-09-08T08:35:12;101821.53;;;26.61;100.00
52535;BME280;38443;53.164;5.802;2023-09-08T08:37:39;101806.94;;;26.72;100.00
52535;BME280;38443;53.164;5.802;2023-09-08T08:40:06;101816.06;;;26.73;100.00
52535;BME280;38443;53.164;5.802;2023-09-08T08:42:32;101809.44;;;26.75;100.00
52535;BME280;38443;53.164;5.802;2023-09-08T08:44:59;101810.31;;;26.64;100.00
52535;BME280;38443;53.164;5.802;2023-09-08T08:47:25;101806.19;;;26.70;100.00
52535;BME280;38443;53.164;5.802;2023-09-08T08:49:53;101813.81;;;26.66;100.00
52535;BME280;38443;53.164;5.802;2023-09-08T08:52:19;101808.16;;;26.68;100.00
52535;BME280;38443;53.164;5.802;2023-09-08T08:54:45;101810.69;;;26.71;100.00
52535;BME280;38443;53.164;5.802;2023-09-08T08:57:11;101807.44;;;26.66;100.00
52535;BME280;38443;53.164;5.802;2023-09-08T08:59:38;101801.19;;;26.64;100.00
52535;BME280;38443;53.164;5.802;2023-09-08T09:02:04;101811.91;;;26.56;100.00
52535;BME280;38443;53.164;5.802;2023-09-08T09:04:31;101811.31;;;26.63;100.00
52535;BME280;38443;53.164;5.802;2023-09-08T09:06:57;101814.91;;;26.53;100.00
52535;BME280;38443;53.164;5.802;2023-09-08T09:09:24;101819.75;;;26.38;100.00
52535;BME280;38443;53.164;5.802;2023-09-08T09:11:50;101826.50;;;26.34;100.00
52535;BME280;38443;53.164;5.802;2023-09-08T09:14:15;101821.38;;;26.29;100.00
52535;BME280;38443;53.164;5.802;2023-09-08T09:16:43;101827.22;;;26.13;100.00
52535;BME280;38443;53.164;5.802;2023-09-08T09:19:09;101820.91;;;25.88;100.00
52535;BME280;38443;53.164;5.802;2023-09-08T09:21:45;101823.66;;;25.53;100.00
52535;BME280;38443;53.164;5.802;2023-09-08T09:24:17;101827.28;;;25.30;100.00
52535;BME280;38443;53.164;5.802;2023-09-08T09:26:42;101825.44;;;25.17;100.00
52535;BME280;38443;53.164;5.802;2023-09-08T09:29:14;101821.19;;;25.13;100.00
52535;BME280;38443;53.164;5.802;2023-09-08T09:31:57;101823.59;;;25.18;100.00
52535;BME280;38443;53.164;5.802;2023-09-08T09:34:26;101823.47;;;25.19;100.00
52535;BME280;38443;53.164;5.802;2023-09-08T09:36:52;101818.22;;;25.16;100.00
52535;BME280;38443;53.164;5.802;2023-09-08T09:39:19;101821.50;;;25.21;100.00
52535;BME280;38443;53.164;5.802;2023-09-08T09:41:46;101814.94;;;25.24;100.00
52535;BME280;38443;53.164;5.802;2023-09-08T09:44:12;101816.09;;;25.33;100.00
52535;BME280;38443;53.164;5.802;2023-09-08T09:46:37;101814.59;;;25.28;100.00
52535;BME280;38443;53.164;5.802;2023-09-08T09:49:02;101812.34;;;25.34;100.00
52535;BME280;38443;53.164;5.802;2023-09-08T09:51:29;101816.56;;;25.51;100.00
52535;BME280;38443;53.164;5.802;2023-09-08T09:53:54;101820.22;;;25.62;100.00
52535;BME280;38443;53.164;5.802;2023-09-08T09:56:22;101813.88;;;25.73;100.00
52535;BME280;38443;53.164;5.802;2023-09-08T09:58:49;101817.16;;;25.78;100.00
52535;BME280;38443;53.164;5.802;2023-09-08T10:01:15;101818.78;;;25.81;100.00
52535;BME280;38443;53.164;5.802;2023-09-08T10:03:42;101822.28;;;25.83;100.00
52535;BME280;38443;53.164;5.802;2023-09-08T10:06:08;101821.34;;;25.95;100.00
52535;BME280;38443;53.164;5.802;2023-09-08T10:08:34;101822.72;;;26.01;100.00
52535;BME280;38443;53.164;5.802;2023-09-08T10:11:07;101815.13;;;26.16;100.00
52535;BME280;38443;53.164;5.802;2023-09-08T10:13:39;101823.63;;;26.35;100.00
52535;BME280;38443;53.164;5.802;2023-09-08T10:16:05;101810.44;;;26.40;100.00
52535;BME280;38443;53.164;5.802;2023-09-08T10:18:33;101808.03;;;26.47;100.00
52535;BME280;38443;53.164;5.802;2023-09-08T10:21:03;101805.94;;;26.62;100.00
52535;BME280;38443;53.164;5.802;2023-09-08T10:23:41;101812.06;;;26.77;100.00
52535;BME280;38443;53.164;5.802;2023-09-08T10:26:11;101811.53;;;26.94;100.00
52535;BME280;38443;53.164;5.802;2023-09-08T10:28:38;101806.50;;;27.11;100.00
52535;BME280;38443;53.164;5.802;2023-09-08T10:31:04;101811.19;;;27.20;100.00
52535;BME280;38443;53.164;5.802;2023-09-08T10:33:31;101813.19;;;27.29;100.00
52535;BME280;38443;53.164;5.802;2023-09-08T10:35:57;101809.41;;;27.41;100.00
52535;BME280;38443;53.164;5.802;2023-09-08T10:38:24;101811.97;;;27.54;100.00
52535;BME280;38443;53.164;5.802;2023-09-08T10:40:50;101801.19;;;27.62;100.00
52535;BME280;38443;53.164;5.802;2023-09-08T10:43:16;101810.97;;;27.76;100.00
52535;BME280;38443;53.164;5.802;2023-09-08T10:45:43;101809.84;;;27.79;100.00
52535;BME280;38443;53.164;5.802;2023-09-08T10:48:08;101805.63;;;27.75;100.00
52535;BME280;38443;53.164;5.802;2023-09-08T10:50:39;101804.47;;;27.77;100.00
52535;BME280;38443;53.164;5.802;2023-09-08T10:53:17;101801.94;;;27.85;100.00
52535;BME280;38443;53.164;5.802;2023-09-08T10:55:44;101810.53;;;27.92;100.00
52535;BME280;38443;53.164;5.802;2023-09-08T10:58:35;101805.56;;;28.07;100.00
52535;BME280;38443;53.164;5.802;2023-09-08T11:01:02;101798.47;;;28.04;100.00
52535;BME280;38443;53.164;5.802;2023-09-08T11:06:05;101800.13;;;28.17;100.00
52535;BME280;38443;53.164;5.802;2023-09-08T11:08:30;101810.00;;;28.19;100.00
52535;BME280;38443;53.164;5.802;2023-09-08T11:10:56;101811.78;;;28.30;100.00
52535;BME280;38443;53.164;5.802;2023-09-08T11:13:21;101812.44;;;28.43;100.00
52535;BME280;38443;53.164;5.802;2023-09-08T11:15:47;101809.06;;;28.61;100.00
52535;BME280;38443;53.164;5.802;2023-09-08T11:18:12;101805.69;;;28.57;100.00
52535;BME280;38443;53.164;5.802;2023-09-08T11:20:38;101803.38;;;28.53;100.00
52535;BME280;38443;53.164;5.802;2023-09-08T11:23:03;101803.22;;;28.54;100.00
52535;BME280;38443;53.164;5.802;2023-09-08T11:25:31;101800.78;;;28.61;100.00
52535;BME280;38443;53.164;5.802;2023-09-08T11:27:57;101803.72;;;28.69;100.00
52535;BME280;38443;53.164;5.802;2023-09-08T11:30:24;101804.03;;;28.76;100.00
52535;BME280;38443;53.164;5.802;2023-09-08T11:32:50;101799.97;;;28.80;100.00
52535;BME280;38443;53.164;5.802;2023-09-08T11:35:16;101800.56;;;28.83;100.00
52535;BME280;38443;53.164;5.802;2023-09-08T11:37:41;101801.44;;;28.94;100.00
52535;BME280;38443;53.164;5.802;2023-09-08T11:40:08;101799.88;;;28.91;100.00
52535;BME280;38443;53.164;5.802;2023-09-08T11:42:41;101808.00;;;28.93;100.00
52535;BME280;38443;53.164;5.802;2023-09-08T11:45:17;101804.38;;;29.02;100.00
52535;BME280;38443;53.164;5.802;2023-09-08T11:47:46;101805.41;;;29.11;100.00
52535;BME280;38443;53.164;5.802;2023-09-08T11:50:12;101802.53;;;29.12;100.00
52535;BME280;38443;53.164;5.802;2023-09-08T11:52:43;101802.03;;;28.88;100.00
52535;BME280;38443;53.164;5.802;2023-09-08T11:55:09;101796.22;;;28.81;100.00
52535;BME280;38443;53.164;5.802;2023-09-08T11:57:35;101793.88;;;28.86;100.00
52535;BME280;38443;53.164;5.802;2023-09-08T12:00:01;101797.81;;;28.83;100.00
52535;BME280;38443;53.164;5.802;2023-09-08T12:02:34;101799.72;;;28.93;100.00
52535;BME280;38443;53.164;5.802;2023-09-08T12:05:00;101801.91;;;28.99;100.00
52535;BME280;38443;53.164;5.802;2023-09-08T12:07:25;101790.00;;;29.08;100.00
52535;BME280;38443;53.164;5.802;2023-09-08T12:09:51;101789.59;;;29.03;100.00
52535;BME280;38443;53.164;5.802;2023-09-08T12:12:16;101790.16;;;29.07;100.00
52535;BME280;38443;53.164;5.802;2023-09-08T12:14:42;101790.38;;;29.15;100.00
52535;BME280;38443;53.164;5.802;2023-09-08T12:17:08;101794.00;;;29.15;100.00
52535;BME280;38443;53.164;5.802;2023-09-08T12:19:33;101796.16;;;29.12;100.00
52535;BME280;38443;53.164;5.802;2023-09-08T12:22:03;101789.59;;;29.03;100.00
52535;BME280;38443;53.164;5.802;2023-09-08T12:27:19;101787.06;;;28.90;100.00
52535;BME280;38443;53.164;5.802;2023-09-08T12:30:03;101788.25;;;28.88;99.65
52535;BME280;38443;53.164;5.802;2023-09-08T12:32:34;101783.00;;;28.84;100.00
52535;BME280;38443;53.164;5.802;2023-09-08T12:35:02;101781.97;;;28.76;100.00
52535;BME280;38443;53.164;5.802;2023-09-08T12:37:28;101784.88;;;28.74;100.00
52535;BME280;38443;53.164;5.802;2023-09-08T12:39:54;101780.09;;;28.76;100.00
52535;BME280;38443;53.164;5.802;2023-09-08T12:42:20;101779.34;;;28.74;100.00
52535;BME280;38443;53.164;5.802;2023-09-08T12:44:47;101785.59;;;28.76;100.00
52535;BME280;38443;53.164;5.802;2023-09-08T12:47:12;101779.34;;;28.74;100.00